Home > Products > Valid Products > TAF

000
FTUS43 KARX 280520
TAFLSE
TAF
KLSE 280520Z 2806/0106 18005KT P6SM SKC
     FM281600 17007KT P6SM SCT250
     FM282200 17008KT P6SM SCT035 OVC070=



000
FTUS43 KARX 280520
TAFRST
TAF
KRST 280520Z 2806/0106 18009KT P6SM SKC
     FM282100 18013KT P6SM SCT030 OVC060=



000
FTUS43 KARX 280520
TAFRST
TAF
KRST 280520Z 2806/0106 18009KT P6SM SKC
     FM282100 18013KT P6SM SCT030 OVC060=



000
FTUS43 KARX 280520
TAFLSE
TAF
KLSE 280520Z 2806/0106 18005KT P6SM SKC
     FM281600 17007KT P6SM SCT250
     FM282200 17008KT P6SM SCT035 OVC070=



000
FTUS43 KARX 272340
TAFLSE
TAF
KLSE 272340Z 2800/2824 VRB03KT P6SM SKC
     FM281400 17007KT P6SM SCT250
     FM282200 17008KT P6SM BKN080=



000
FTUS43 KARX 272340
TAFLSE
TAF
KLSE 272340Z 2800/2824 VRB03KT P6SM SKC
     FM281400 17007KT P6SM SCT250
     FM282200 17008KT P6SM BKN080=



000
FTUS43 KARX 272340
TAFRST
TAF
KRST 272340Z 2800/2824 21006KT P6SM SKC
     FM281400 18010KT P6SM SCT250
     FM282100 18013KT P6SM BKN070=



000
FTUS43 KARX 272340
TAFRST
TAF
KRST 272340Z 2800/2824 21006KT P6SM SKC
     FM281400 18010KT P6SM SCT250
     FM282100 18013KT P6SM BKN070=



000
FTUS43 KARX 272340
TAFRST
TAF
KRST 272340Z 2800/2824 21006KT P6SM SKC
     FM281400 18010KT P6SM SCT250
     FM282100 18013KT P6SM BKN070=



000
FTUS43 KARX 272340
TAFLSE
TAF
KLSE 272340Z 2800/2824 VRB03KT P6SM SKC
     FM281400 17007KT P6SM SCT250
     FM282200 17008KT P6SM BKN080=



000
FTUS43 KARX 271720
TAFRST
TAF
KRST 271720Z 2718/2818 25007KT P6SM SKC
     FM280000 21006KT P6SM SKC
     FM281200 18008KT P6SM SKC=



000
FTUS43 KARX 271720
TAFLSE
TAF
KLSE 271720Z 2718/2818 22005KT P6SM SKC
     FM280100 18003KT P6SM SKC
     FM281400 16005KT P6SM SKC=



000
FTUS43 KARX 271120
TAFRST
TAF
KRST 271120Z 2712/2812 26006KT P6SM SKC
     FM280000 21007KT P6SM SKC=



000
FTUS43 KARX 271120
TAFRST
TAF
KRST 271120Z 2712/2812 26006KT P6SM SKC
     FM280000 21007KT P6SM SKC=



000
FTUS43 KARX 271120
TAFLSE
TAF
KLSE 271120Z 2712/2812 25005KT P6SM SKC
     FM280000 19004KT P6SM SKC=



000
FTUS43 KARX 271120
TAFLSE
TAF
KLSE 271120Z 2712/2812 25005KT P6SM SKC
     FM280000 19004KT P6SM SKC=



000
FTUS43 KARX 270520
TAFLSE
TAF
KLSE 270520Z 2706/2806 VRB03KT P6SM SKC
     FM280000 20004KT P6SM SKC=



000
FTUS43 KARX 270520
TAFRST
TAF
KRST 270520Z 2706/2806 26006KT P6SM SKC
     FM280000 21006KT P6SM SKC=



000
FTUS43 KARX 270520
TAFRST
TAF
KRST 270520Z 2706/2806 26006KT P6SM SKC
     FM280000 21007KT P6SM SKC=



000
FTUS43 KARX 270520
TAFLSE
TAF
KLSE 270520Z 2706/2806 25005KT P6SM SKC
     FM280000 19004KT P6SM SKC=



000
FTUS43 KARX 270520
TAFLSE
TAF
KLSE 270520Z 2706/2806 VRB03KT P6SM SKC
     FM280000 20004KT P6SM SKC=



000
FTUS43 KARX 270520
TAFRST
TAF
KRST 270520Z 2706/2806 26006KT P6SM SKC
     FM280000 21007KT P6SM SKC=



000
FTUS43 KARX 270520
TAFRST
TAF
KRST 270520Z 2706/2806 26006KT P6SM SKC
     FM280000 21006KT P6SM SKC=



000
FTUS43 KARX 270520
TAFLSE
TAF
KLSE 270520Z 2706/2806 VRB03KT P6SM SKC
     FM280000 20004KT P6SM SKC=



000
FTUS43 KARX 270520
TAFRST
TAF
KRST 270520Z 2706/2806 26006KT P6SM SKC
     FM280000 21006KT P6SM SKC=



000
FTUS43 KARX 270520
TAFLSE
TAF
KLSE 270520Z 2706/2806 25005KT P6SM SKC
     FM280000 19004KT P6SM SKC=



000
FTUS43 KARX 270520
TAFRST
TAF
KRST 270520Z 2706/2806 26006KT P6SM SKC
     FM280000 21006KT P6SM SKC=



000
FTUS43 KARX 270520
TAFRST
TAF
KRST 270520Z 2706/2806 26006KT P6SM SKC
     FM280000 21007KT P6SM SKC=



000
FTUS43 KARX 262320
TAFRST
TAF
KRST 262320Z 2700/2724 32012KT P6SM SCT025
     FM270200 26006KT P6SM SKC=



000
FTUS43 KARX 262320
TAFRST
TAF
KRST 262320Z 2700/2724 32012KT P6SM SCT025
     FM270200 26006KT P6SM SKC=



000
FTUS43 KARX 262320
TAFLSE
TAF
KLSE 262320Z 2700/2724 32008KT P6SM SCT035
     FM270300 26004KT P6SM SKC=



000
FTUS43 KARX 262320
TAFLSE
TAF
KLSE 262320Z 2700/2724 32008KT P6SM SCT035
     FM270300 26004KT P6SM SKC=



000
FTUS43 KARX 262320
TAFLSE
TAF
KLSE 262320Z 2700/2724 32008KT P6SM SCT035
     FM270300 26004KT P6SM SKC=



000
FTUS43 KARX 262320
TAFLSE
TAF
KLSE 262320Z 2700/2724 32008KT P6SM SCT035
     FM270300 26004KT P6SM SKC=



000
FTUS43 KARX 262320
TAFRST
TAF
KRST 262320Z 2700/2724 32012KT P6SM SCT025
     FM270200 26006KT P6SM SKC=



000
FTUS43 KARX 261727
TAFRST
TAF
KRST 261727Z 2618/2718 32012KT P6SM SCT025
     FM270200 28004KT P6SM SKC=



000
FTUS43 KARX 261727
TAFRST
TAF
KRST 261727Z 2618/2718 32012KT P6SM SCT025
     FM270200 28004KT P6SM SKC=



000
FTUS43 KARX 261727
TAFLSE
TAF
KLSE 261727Z 2618/2718 32008KT P6SM SCT030
     FM270300 29003KT P6SM SKC=



000
FTUS43 KARX 261130
TAFRST
TAF
KRST 261130Z 2612/2712 34010KT P6SM SKC
     FM270000 31008KT P6SM SKC=



000
FTUS43 KARX 261130
TAFLSE
TAF
KLSE 261130Z 2612/2712 33008KT P6SM SKC
     FM270300 30005KT P6SM SKC=



000
FTUS43 KARX 261130
TAFRST
TAF
KRST 261130Z 2612/2712 34010KT P6SM SKC
     FM270000 31008KT P6SM SKC=



000
FTUS43 KARX 261130
TAFLSE
TAF
KLSE 261130Z 2612/2712 33008KT P6SM SKC
     FM270300 30005KT P6SM SKC=



000
FTUS43 KARX 260526
TAFRST
TAF
KRST 260526Z 2606/2706 35010KT P6SM SKC
     FM262200 32010KT P6SM SKC=



000
FTUS43 KARX 260526
TAFRST
TAF
KRST 260526Z 2606/2706 35010KT P6SM SKC
     FM262200 32010KT P6SM SKC=



000
FTUS43 KARX 260526
TAFLSE
TAF
KLSE 260526Z 2606/2706 33008KT P6SM SKC
     FM270300 30005KT P6SM SKC=



000
FTUS43 KARX 252334
TAFRST
TAF
KRST 252334Z 2600/2624 01010KT P6SM BKN050
     FM260200 01011KT P6SM SKC
     FM261000 35010KT P6SM SKC=



000
FTUS43 KARX 252334
TAFLSE
TAF
KLSE 252334Z 2600/2624 36008KT P6SM SCT025 OVC045
     FM260300 35008KT P6SM SKC
     FM261600 33007KT P6SM SKC=



000
FTUS43 KARX 252334
TAFRST
TAF
KRST 252334Z 2600/2624 01010KT P6SM BKN050
     FM260200 01011KT P6SM SKC
     FM261000 35010KT P6SM SKC=



000
FTUS43 KARX 252334
TAFLSE
TAF
KLSE 252334Z 2600/2624 36008KT P6SM SCT025 OVC045
     FM260300 35008KT P6SM SKC
     FM261600 33007KT P6SM SKC=



000
FTUS43 KARX 252334
TAFLSE
TAF
KLSE 252334Z 2600/2624 36008KT P6SM SCT025 OVC045
     FM260300 35008KT P6SM SKC
     FM261600 33007KT P6SM SKC=



000
FTUS43 KARX 252334
TAFRST
TAF
KRST 252334Z 2600/2624 01010KT P6SM BKN050
     FM260200 01011KT P6SM SKC
     FM261000 35010KT P6SM SKC=



000
FTUS43 KARX 252334
TAFLSE
TAF
KLSE 252334Z 2600/2624 36008KT P6SM SCT025 OVC045
     FM260300 35008KT P6SM SKC
     FM261600 33007KT P6SM SKC=



000
FTUS43 KARX 252334
TAFRST
TAF
KRST 252334Z 2600/2624 01010KT P6SM BKN050
     FM260200 01011KT P6SM SKC
     FM261000 35010KT P6SM SKC=



000
FTUS43 KARX 252148 AAA
TAFRST
TAF AMD
KRST 252148Z 2522/2618 03010KT 5SM -SN OVC030
      TEMPO 2522/2601 3SM -SN BKN020 OVC030
     FM260100 01012KT P6SM OVC040
     FM260300 35010KT P6SM SCT070
     FM261200 34010KT P6SM SCT040=



000
FTUS43 KARX 252148 AAA
TAFRST
TAF AMD
KRST 252148Z 2522/2618 03010KT 5SM -SN OVC030
      TEMPO 2522/2601 3SM -SN BKN020 OVC030
     FM260100 01012KT P6SM OVC040
     FM260300 35010KT P6SM SCT070
     FM261200 34010KT P6SM SCT040=



000
FTUS43 KARX 251735
TAFRST
TAF
KRST 251735Z 2518/2618 07008KT 3/4SM -SN OVC012
      TEMPO 2518/2522 2SM -SN OVC020
     FM252200 03010KT 4SM -SN OVC012
     FM260100 01012KT P6SM OVC020
     FM260300 35010KT P6SM SCT070
     FM261200 34010KT P6SM SCT040=



000
FTUS43 KARX 251735
TAFRST
TAF
KRST 251735Z 2518/2618 07008KT 3/4SM -SN OVC012
      TEMPO 2518/2522 2SM -SN OVC020
     FM252200 03010KT 4SM -SN OVC012
     FM260100 01012KT P6SM OVC020
     FM260300 35010KT P6SM SCT070
     FM261200 34010KT P6SM SCT040=



000
FTUS43 KARX 251735
TAFLSE
TAF
KLSE 251735Z 2518/2618 04005KT 2SM -SN OVC025
      TEMPO 2518/2522 1 1/2SM -SN OVC015
     FM252200 01007KT 4SM -SN OVC020
     FM260100 35007KT P6SM OVC040
     FM260500 35008KT P6SM SCT080
     FM261200 35007KT P6SM SCT045=



000
FTUS43 KARX 251735
TAFLSE
TAF
KLSE 251735Z 2518/2618 04005KT 2SM -SN OVC025
      TEMPO 2518/2522 1 1/2SM -SN OVC015
     FM252200 01007KT 4SM -SN OVC020
     FM260100 35007KT P6SM OVC040
     FM260500 35008KT P6SM SCT080
     FM261200 35007KT P6SM SCT045=



000
FTUS43 KARX 251735
TAFRST
TAF
KRST 251735Z 2518/2618 07008KT 3/4SM -SN OVC012
      TEMPO 2518/2522 2SM -SN OVC020
     FM252200 03010KT 4SM -SN OVC012
     FM260100 01012KT P6SM OVC020
     FM260300 35010KT P6SM SCT070
     FM261200 34010KT P6SM SCT040=



000
FTUS43 KARX 251735
TAFLSE
TAF
KLSE 251735Z 2518/2618 04005KT 2SM -SN OVC025
      TEMPO 2518/2522 1 1/2SM -SN OVC015
     FM252200 01007KT 4SM -SN OVC020
     FM260100 35007KT P6SM OVC040
     FM260500 35008KT P6SM SCT080
     FM261200 35007KT P6SM SCT045=



000
FTUS43 KARX 251735
TAFLSE
TAF
KLSE 251735Z 2518/2618 04005KT 2SM -SN OVC025
      TEMPO 2518/2522 1 1/2SM -SN OVC015
     FM252200 01007KT 4SM -SN OVC020
     FM260100 35007KT P6SM OVC040
     FM260500 35008KT P6SM SCT080
     FM261200 35007KT P6SM SCT045=



000
FTUS43 KARX 251735
TAFRST
TAF
KRST 251735Z 2518/2618 07008KT 3/4SM -SN OVC012
      TEMPO 2518/2522 2SM -SN OVC020
     FM252200 03010KT 4SM -SN OVC012
     FM260100 01012KT P6SM OVC020
     FM260300 35010KT P6SM SCT070
     FM261200 34010KT P6SM SCT040=



000
FTUS43 KARX 251533 AAC
TAFRST
TAF AMD
KRST 251533Z 2516/2612 07007KT 1/2SM -SN FZFG OVC008
     FM251800 08008KT 1SM -SN OVC008
     FM252100 03010KT 4SM -SN OVC012
     FM252300 01012KT P6SM OVC020
     FM260700 35010KT P6SM SCT250=



000
FTUS43 KARX 251533 AAC
TAFRST
TAF AMD
KRST 251533Z 2516/2612 07007KT 1/2SM -SN FZFG OVC008
     FM251800 08008KT 1SM -SN OVC008
     FM252100 03010KT 4SM -SN OVC012
     FM252300 01012KT P6SM OVC020
     FM260700 35010KT P6SM SCT250=



000
FTUS43 KARX 251405 AAB
TAFRST
TAF AMD
KRST 251405Z 2514/2612 07007KT 1SM -SN OVC025
      TEMPO 2514/2516 3SM -SN OVC010
     FM251600 08008KT 1SM -SN OVC008
     FM252100 03010KT 4SM -SN OVC012
     FM252300 01012KT P6SM OVC020
     FM260700 35010KT P6SM SCT250=



000
FTUS43 KARX 251306 AAA
TAFRST
TAF AMD
KRST 251306Z 2513/2612 06007KT P6SM -SN OVC035
      TEMPO 2513/2515 3SM -SN OVC015
     FM251500 08008KT 1 1/2SM -SN OVC010
     FM252100 03010KT 4SM -SN OVC012
     FM252300 01012KT P6SM OVC020
     FM260700 35010KT P6SM SCT250=



000
FTUS43 KARX 251306 AAA
TAFRST
TAF AMD
KRST 251306Z 2513/2612 06007KT P6SM -SN OVC035
      TEMPO 2513/2515 3SM -SN OVC015
     FM251500 08008KT 1 1/2SM -SN OVC010
     FM252100 03010KT 4SM -SN OVC012
     FM252300 01012KT P6SM OVC020
     FM260700 35010KT P6SM SCT250=



000
FTUS43 KARX 251306 AAA
TAFRST
TAF AMD
KRST 251306Z 2513/2612 06007KT P6SM -SN OVC035
      TEMPO 2513/2515 3SM -SN OVC015
     FM251500 08008KT 1 1/2SM -SN OVC010
     FM252100 03010KT 4SM -SN OVC012
     FM252300 01012KT P6SM OVC020
     FM260700 35010KT P6SM SCT250=



000
FTUS43 KARX 251306 AAA
TAFRST
TAF AMD
KRST 251306Z 2513/2612 06007KT P6SM -SN OVC035
      TEMPO 2513/2515 3SM -SN OVC015
     FM251500 08008KT 1 1/2SM -SN OVC010
     FM252100 03010KT 4SM -SN OVC012
     FM252300 01012KT P6SM OVC020
     FM260700 35010KT P6SM SCT250=



000
FTUS43 KARX 251130
TAFLSE
TAF
KLSE 251130Z 2512/2612 04005KT P6SM BKN080
     FM251600 06005KT P6SM -SN BKN060
     FM251800 04005KT 2SM -SN OVC020
     FM252300 01007KT 4SM -SN OVC025
     FM260100 35007KT P6SM OVC040
     FM260900 35008KT P6SM SCT250=



000
FTUS43 KARX 251130
TAFRST
TAF
KRST 251130Z 2512/2612 06007KT P6SM OVC040
     FM251400 08007KT P6SM -SN BKN035
     FM251500 08008KT 1 1/2SM -SN OVC010
     FM252100 03010KT 4SM -SN OVC012
     FM252300 01012KT P6SM OVC020
     FM260700 35010KT P6SM SCT250=



000
FTUS43 KARX 250531
TAFRST
TAF
KRST 250531Z 2506/2606 32010KT P6SM SKC
     FM250900 36006KT P6SM BKN080
     FM251700 06007KT 4SM -SN BKN020
     FM260000 36008KT P6SM -SN BKN025
     FM260300 36009KT P6SM BKN040=



000
FTUS43 KARX 250531
TAFLSE
TAF
KLSE 250531Z 2506/2606 32009KT P6SM SKC
     FM251000 VRB03KT P6SM BKN100
     FM251600 33003KT P6SM BKN060
     FM251900 34004KT P6SM -SN BKN040
     FM260300 34006KT P6SM BKN060=



000
FTUS43 KARX 250531
TAFLSE
TAF
KLSE 250531Z 2506/2606 32009KT P6SM SKC
     FM251000 VRB03KT P6SM BKN100
     FM251600 33003KT P6SM BKN060
     FM251900 34004KT P6SM -SN BKN040
     FM260300 34006KT P6SM BKN060=



000
FTUS43 KARX 250531
TAFRST
TAF
KRST 250531Z 2506/2606 32010KT P6SM SKC
     FM250900 36006KT P6SM BKN080
     FM251700 06007KT 4SM -SN BKN020
     FM260000 36008KT P6SM -SN BKN025
     FM260300 36009KT P6SM BKN040=



    US Dept of Commerce
    National Oceanic and Atmospheric Administration
    National Weather Service
    1325 East West Highway
    Silver Spring, MD 20910
    Page Author: NWS Internet Services Team
Disclaimer
Information Quality
Credits
Glossary
Privacy Policy
Freedom of Information Act (FOIA)
About Us
Career Opportunities